sensor_id;sensor_type;location;lat;lon;timestamp;pressure;altitude;pressure_sealevel;temperature;humidity
62418;BME280;48456;54.242;10.280;2023-09-12T00:00:56;100981.25;;;18.57;100.00
62418;BME280;48456;54.242;10.280;2023-09-12T00:03:23;100984.09;;;18.52;100.00
62418;BME280;48456;54.242;10.280;2023-09-12T00:05:50;100984.22;;;18.49;100.00
62418;BME280;48456;54.242;10.280;2023-09-12T00:08:16;100994.16;;;18.46;100.00
62418;BME280;48456;54.242;10.280;2023-09-12T00:10:43;100997.81;;;18.43;100.00
62418;BME280;48456;54.242;10.280;2023-09-12T00:13:09;100997.00;;;18.41;100.00
62418;BME280;48456;54.242;10.280;2023-09-12T00:15:36;100996.91;;;18.42;100.00
62418;BME280;48456;54.242;10.280;2023-09-12T00:18:02;100995.13;;;18.43;100.00
62418;BME280;48456;54.242;10.280;2023-09-12T00:20:29;101003.13;;;18.44;100.00
62418;BME280;48456;54.242;10.280;2023-09-12T00:22:55;100999.50;;;18.46;100.00
62418;BME280;48456;54.242;10.280;2023-09-12T00:25:22;101011.91;;;18.48;100.00
62418;BME280;48456;54.242;10.280;2023-09-12T00:27:48;101023.41;;;18.52;100.00
62418;BME280;48456;54.242;10.280;2023-09-12T00:30:15;101025.16;;;18.53;100.00
62418;BME280;48456;54.242;10.280;2023-09-12T00:32:41;101025.97;;;18.55;100.00
62418;BME280;48456;54.242;10.280;2023-09-12T00:35:08;101027.78;;;18.54;100.00
62418;BME280;48456;54.242;10.280;2023-09-12T00:37:34;101022.47;;;18.53;100.00
62418;BME280;48456;54.242;10.280;2023-09-12T00:40:01;101025.09;;;18.54;100.00
62418;BME280;48456;54.242;10.280;2023-09-12T00:42:27;101024.22;;;18.54;100.00
62418;BME280;48456;54.242;10.280;2023-09-12T00:44:53;101019.75;;;18.54;100.00
62418;BME280;48456;54.242;10.280;2023-09-12T00:47:20;101023.28;;;18.55;100.00
62418;BME280;48456;54.242;10.280;2023-09-12T00:49:48;101040.25;;;18.55;100.00
62418;BME280;48456;54.242;10.280;2023-09-12T00:52:22;101037.53;;;18.57;100.00
62418;BME280;48456;54.242;10.280;2023-09-12T00:54:49;101036.63;;;18.56;100.00
62418;BME280;48456;54.242;10.280;2023-09-12T00:57:16;101032.13;;;18.59;100.00
62418;BME280;48456;54.242;10.280;2023-09-12T00:59:43;101030.28;;;18.59;100.00
62418;BME280;48456;54.242;10.280;2023-09-12T01:02:09;101029.38;;;18.60;100.00
62418;BME280;48456;54.242;10.280;2023-09-12T01:04:36;101027.56;;;18.61;100.00
62418;BME280;48456;54.242;10.280;2023-09-12T01:07:03;101004.44;;;18.58;100.00
62418;BME280;48456;54.242;10.280;2023-09-12T01:09:31;101008.94;;;18.57;100.00
62418;BME280;48456;54.242;10.280;2023-09-12T01:11:59;101005.31;;;18.59;100.00
62418;BME280;48456;54.242;10.280;2023-09-12T01:14:25;100995.53;;;18.57;100.00
62418;BME280;48456;54.242;10.280;2023-09-12T01:16:51;100995.59;;;18.56;100.00
62418;BME280;48456;54.242;10.280;2023-09-12T01:19:18;100990.28;;;18.54;100.00
62418;BME280;48456;54.242;10.280;2023-09-12T01:29:38;100995.53;;;18.57;100.00
62418;BME280;48456;54.242;10.280;2023-09-12T01:32:05;100999.97;;;18.59;100.00
62418;BME280;48456;54.242;10.280;2023-09-12T01:34:32;101000.81;;;18.59;100.00
62418;BME280;48456;54.242;10.280;2023-09-12T01:36:58;101000.78;;;18.61;100.00
62418;BME280;48456;54.242;10.280;2023-09-12T01:39:25;100997.19;;;18.62;100.00
62418;BME280;48456;54.242;10.280;2023-09-12T01:41:51;100991.84;;;18.62;100.00
62418;BME280;48456;54.242;10.280;2023-09-12T01:44:19;100983.84;;;18.60;100.00
62418;BME280;48456;54.242;10.280;2023-09-12T01:46:48;100973.06;;;18.62;100.00
62418;BME280;48456;54.242;10.280;2023-09-12T01:49:16;100964.09;;;18.63;100.00
62418;BME280;48456;54.242;10.280;2023-09-12T01:51:45;100965.03;;;18.62;100.00
62418;BME280;48456;54.242;10.280;2023-09-12T01:54:12;100968.63;;;18.61;100.00
62418;BME280;48456;54.242;10.280;2023-09-12T01:56:38;100973.97;;;18.61;100.00
62418;BME280;48456;54.242;10.280;2023-09-12T01:59:05;100959.72;;;18.60;100.00
62418;BME280;48456;54.242;10.280;2023-09-12T02:01:32;100972.19;;;18.61;100.00
62418;BME280;48456;54.242;10.280;2023-09-12T02:03:58;100963.25;;;18.61;100.00
62418;BME280;48456;54.242;10.280;2023-09-12T02:06:25;100965.94;;;18.61;100.00
62418;BME280;48456;54.242;10.280;2023-09-12T02:08:51;100965.94;;;18.61;100.00
62418;BME280;48456;54.242;10.280;2023-09-12T02:11:18;100974.88;;;18.61;100.00
62418;BME280;48456;54.242;10.280;2023-09-12T02:13:44;100974.88;;;18.61;100.00
62418;BME280;48456;54.242;10.280;2023-09-12T02:16:11;100988.16;;;18.64;100.00
62418;BME280;48456;54.242;10.280;2023-09-12T02:18:37;100989.97;;;18.64;100.00
62418;BME280;48456;54.242;10.280;2023-09-12T02:21:03;100998.09;;;18.61;100.00
62418;BME280;48456;54.242;10.280;2023-09-12T02:23:30;100998.09;;;18.61;100.00
62418;BME280;48456;54.242;10.280;2023-09-12T02:25:56;100995.41;;;18.61;100.00
62418;BME280;48456;54.242;10.280;2023-09-12T02:28:23;100984.75;;;18.59;100.00
62418;BME280;48456;54.242;10.280;2023-09-12T02:30:49;100978.44;;;18.62;100.00
62418;BME280;48456;54.242;10.280;2023-09-12T02:33:16;100982.91;;;18.61;100.00
62418;BME280;48456;54.242;10.280;2023-09-12T02:35:42;100982.91;;;18.61;100.00
62418;BME280;48456;54.242;10.280;2023-09-12T02:38:09;100990.06;;;18.61;100.00
62418;BME280;48456;54.242;10.280;2023-09-12T02:40:35;100992.75;;;18.61;100.00
62418;BME280;48456;54.242;10.280;2023-09-12T02:43:02;101003.44;;;18.61;100.00
62418;BME280;48456;54.242;10.280;2023-09-12T02:45:28;100999.88;;;18.62;100.00
62418;BME280;48456;54.242;10.280;2023-09-12T02:47:55;100995.38;;;18.62;100.00
62418;BME280;48456;54.242;10.280;2023-09-12T02:50:21;100997.09;;;18.63;100.00
62418;BME280;48456;54.242;10.280;2023-09-12T02:52:48;101004.28;;;18.63;100.00
62418;BME280;48456;54.242;10.280;2023-09-12T02:55:14;101012.28;;;18.64;100.00
62418;BME280;48456;54.242;10.280;2023-09-12T02:57:40;101017.69;;;18.63;100.00
62418;BME280;48456;54.242;10.280;2023-09-12T03:00:07;101017.69;;;18.63;100.00
62418;BME280;48456;54.242;10.280;2023-09-12T03:02:35;101003.41;;;18.62;100.00
62418;BME280;48456;54.242;10.280;2023-09-12T03:05:02;101013.19;;;18.63;100.00
62418;BME280;48456;54.242;10.280;2023-09-12T03:07:29;101006.97;;;18.63;100.00
62418;BME280;48456;54.242;10.280;2023-09-12T03:09:55;101010.50;;;18.63;100.00
62418;BME280;48456;54.242;10.280;2023-09-12T03:12:22;101003.31;;;18.65;100.00
62418;BME280;48456;54.242;10.280;2023-09-12T03:14:48;101005.94;;;18.67;100.00
62418;BME280;48456;54.242;10.280;2023-09-12T03:17:15;101017.50;;;18.67;100.00
62418;BME280;48456;54.242;10.280;2023-09-12T03:19:41;101013.97;;;18.67;100.00
62418;BME280;48456;54.242;10.280;2023-09-12T03:22:07;101020.31;;;18.64;100.00
62418;BME280;48456;54.242;10.280;2023-09-12T03:24:34;101009.66;;;18.63;100.00
62418;BME280;48456;54.242;10.280;2023-09-12T03:27:00;100998.09;;;18.61;100.00
62418;BME280;48456;54.242;10.280;2023-09-12T03:29:26;101007.91;;;18.62;100.00
62418;BME280;48456;54.242;10.280;2023-09-12T03:31:53;101002.66;;;18.59;100.00
62418;BME280;48456;54.242;10.280;2023-09-12T03:34:19;100990.25;;;18.56;100.00
62418;BME280;48456;54.242;10.280;2023-09-12T03:36:46;100994.75;;;18.54;100.00
62418;BME280;48456;54.242;10.280;2023-09-12T03:39:12;101006.41;;;18.53;100.00
62418;BME280;48456;54.242;10.280;2023-09-12T03:41:41;101017.22;;;18.50;100.00
62418;BME280;48456;54.242;10.280;2023-09-12T03:44:07;101019.94;;;18.48;100.00
62418;BME280;48456;54.242;10.280;2023-09-12T03:46:34;101019.94;;;18.48;100.00
62418;BME280;48456;54.242;10.280;2023-09-12T03:49:00;101031.53;;;18.49;100.00
62418;BME280;48456;54.242;10.280;2023-09-12T03:51:27;101027.97;;;18.48;100.00
62418;BME280;48456;54.242;10.280;2023-09-12T03:53:53;101022.56;;;18.50;100.00
62418;BME280;48456;54.242;10.280;2023-09-12T03:56:19;101017.16;;;18.51;100.00
62418;BME280;48456;54.242;10.280;2023-09-12T03:58:46;101014.50;;;18.51;100.00
62418;BME280;48456;54.242;10.280;2023-09-12T04:01:13;101013.59;;;18.51;100.00
62418;BME280;48456;54.242;10.280;2023-09-12T04:03:39;101024.31;;;18.51;100.00
62418;BME280;48456;54.242;10.280;2023-09-12T04:06:06;101027.84;;;18.53;100.00
62418;BME280;48456;54.242;10.280;2023-09-12T04:08:32;101026.94;;;18.52;100.00
62418;BME280;48456;54.242;10.280;2023-09-12T04:10:59;101020.72;;;18.52;100.00
62418;BME280;48456;54.242;10.280;2023-09-12T04:13:25;101018.09;;;18.50;100.00
62418;BME280;48456;54.242;10.280;2023-09-12T04:15:51;101014.50;;;18.51;100.00
62418;BME280;48456;54.242;10.280;2023-09-12T04:18:18;101018.06;;;18.52;100.00
62418;BME280;48456;54.242;10.280;2023-09-12T04:20:45;101019.84;;;18.51;100.00
62418;BME280;48456;54.242;10.280;2023-09-12T04:23:11;101018.91;;;18.52;100.00
62418;BME280;48456;54.242;10.280;2023-09-12T04:25:37;101024.41;;;18.49;100.00
62418;BME280;48456;54.242;10.280;2023-09-12T04:28:04;101019.09;;;18.48;100.00
62418;BME280;48456;54.242;10.280;2023-09-12T04:30:30;101018.25;;;18.46;100.00
62418;BME280;48456;54.242;10.280;2023-09-12T04:32:57;101023.66;;;18.44;100.00
62418;BME280;48456;54.242;10.280;2023-09-12T04:35:23;101023.66;;;18.44;100.00
62418;BME280;48456;54.242;10.280;2023-09-12T04:37:51;101026.47;;;18.41;100.00
62418;BME280;48456;54.242;10.280;2023-09-12T04:40:17;101020.25;;;18.39;100.00
62418;BME280;48456;54.242;10.280;2023-09-12T04:42:44;101019.47;;;18.37;100.00
62418;BME280;48456;54.242;10.280;2023-09-12T04:45:10;101011.47;;;18.35;100.00
62418;BME280;48456;54.242;10.280;2023-09-12T04:47:37;101019.56;;;18.34;100.00
62418;BME280;48456;54.242;10.280;2023-09-12T04:50:03;101014.16;;;18.35;100.00
62418;BME280;48456;54.242;10.280;2023-09-12T04:52:30;101006.00;;;18.38;100.00
62418;BME280;48456;54.242;10.280;2023-09-12T04:54:59;101009.47;;;18.42;100.00
62418;BME280;48456;54.242;10.280;2023-09-12T04:57:25;101012.94;;;18.44;100.00
62418;BME280;48456;54.242;10.280;2023-09-12T04:59:52;101016.56;;;18.43;100.00
62418;BME280;48456;54.242;10.280;2023-09-12T05:02:19;101013.88;;;18.43;100.00
62418;BME280;48456;54.242;10.280;2023-09-12T05:04:45;101014.72;;;18.45;100.00
62418;BME280;48456;54.242;10.280;2023-09-12T05:07:11;101014.63;;;18.47;100.00
62418;BME280;48456;54.242;10.280;2023-09-12T05:09:38;101012.84;;;18.47;100.00
62418;BME280;48456;54.242;10.280;2023-09-12T05:12:04;101007.38;;;18.50;100.00
62418;BME280;48456;54.242;10.280;2023-09-12T05:14:31;101007.50;;;18.47;100.00
62418;BME280;48456;54.242;10.280;2023-09-12T05:16:57;101003.81;;;18.50;100.00
62418;BME280;48456;54.242;10.280;2023-09-12T05:19:24;101009.13;;;18.51;100.00
62418;BME280;48456;54.242;10.280;2023-09-12T05:21:52;101015.44;;;18.50;100.00
62418;BME280;48456;54.242;10.280;2023-09-12T05:24:18;101013.56;;;18.52;100.00
62418;BME280;48456;54.242;10.280;2023-09-12T05:26:44;101013.56;;;18.52;100.00
62418;BME280;48456;54.242;10.280;2023-09-12T05:29:11;101012.66;;;18.53;100.00
62418;BME280;48456;54.242;10.280;2023-09-12T05:31:37;101011.72;;;18.54;100.00
62418;BME280;48456;54.242;10.280;2023-09-12T05:34:04;101010.78;;;18.55;100.00
62418;BME280;48456;54.242;10.280;2023-09-12T05:36:30;101020.56;;;18.56;100.00
62418;BME280;48456;54.242;10.280;2023-09-12T05:38:57;101015.16;;;18.58;100.00
62418;BME280;48456;54.242;10.280;2023-09-12T05:41:25;101024.94;;;18.59;100.00
62418;BME280;48456;54.242;10.280;2023-09-12T05:43:52;101022.25;;;18.59;100.00
62418;BME280;48456;54.242;10.280;2023-09-12T05:46:18;101020.50;;;18.58;100.00
62418;BME280;48456;54.242;10.280;2023-09-12T05:48:45;101035.66;;;18.59;100.00
62418;BME280;48456;54.242;10.280;2023-09-12T05:51:12;101032.00;;;18.62;100.00
62418;BME280;48456;54.242;10.280;2023-09-12T05:53:38;101031.13;;;18.61;100.00
62418;BME280;48456;54.242;10.280;2023-09-12T05:56:05;101029.34;;;18.62;100.00
62418;BME280;48456;54.242;10.280;2023-09-12T05:58:31;101034.56;;;18.65;100.00
62418;BME280;48456;54.242;10.280;2023-09-12T06:00:58;101040.72;;;18.68;100.00
62418;BME280;48456;54.242;10.280;2023-09-12T06:03:24;101041.53;;;18.70;100.00
62418;BME280;48456;54.242;10.280;2023-09-12T06:05:51;101050.41;;;18.73;100.00
62418;BME280;48456;54.242;10.280;2023-09-12T06:08:17;101052.13;;;18.74;100.00
62418;BME280;48456;54.242;10.280;2023-09-12T06:10:43;101051.09;;;18.78;100.00
62418;BME280;48456;54.242;10.280;2023-09-12T06:13:10;101045.56;;;18.82;100.00
62418;BME280;48456;54.242;10.280;2023-09-12T06:15:38;101056.94;;;18.89;100.00
62418;BME280;48456;54.242;10.280;2023-09-12T06:18:05;101054.25;;;18.89;100.00
62418;BME280;48456;54.242;10.280;2023-09-12T06:20:31;101049.84;;;18.88;100.00
62418;BME280;48456;54.242;10.280;2023-09-12T06:22:58;101062.38;;;18.88;100.00
62418;BME280;48456;54.242;10.280;2023-09-12T06:25:25;101047.94;;;18.92;100.00
62418;BME280;48456;54.242;10.280;2023-09-12T06:27:52;101047.81;;;18.95;100.00
62418;BME280;48456;54.242;10.280;2023-09-12T06:30:18;101046.81;;;18.98;100.00
62418;BME280;48456;54.242;10.280;2023-09-12T06:32:45;101048.47;;;19.02;100.00
62418;BME280;48456;54.242;10.280;2023-09-12T06:35:12;101053.72;;;19.05;100.00
62418;BME280;48456;54.242;10.280;2023-09-12T06:37:38;101049.97;;;19.11;100.00
62418;BME280;48456;54.242;10.280;2023-09-12T06:40:06;101054.41;;;19.12;100.00
62418;BME280;48456;54.242;10.280;2023-09-12T06:42:33;101057.94;;;19.14;100.00
62418;BME280;48456;54.242;10.280;2023-09-12T06:44:59;101053.31;;;19.17;100.00
62418;BME280;48456;54.242;10.280;2023-09-12T06:47:25;101045.97;;;19.22;100.00
62418;BME280;48456;54.242;10.280;2023-09-12T06:49:52;101044.88;;;19.28;100.00
62418;BME280;48456;54.242;10.280;2023-09-12T06:52:21;101049.19;;;19.32;100.00
62418;BME280;48456;54.242;10.280;2023-09-12T06:54:48;101054.34;;;19.39;100.00
62418;BME280;48456;54.242;10.280;2023-09-12T06:57:15;101054.94;;;19.47;100.00
62418;BME280;48456;54.242;10.280;2023-09-12T06:59:41;101050.06;;;19.57;100.00
62418;BME280;48456;54.242;10.280;2023-09-12T07:02:07;101055.25;;;19.61;100.00
62418;BME280;48456;54.242;10.280;2023-09-12T07:04:36;101053.16;;;19.70;100.00
62418;BME280;48456;54.242;10.280;2023-09-12T07:07:02;101042.59;;;19.65;100.00
62418;BME280;48456;54.242;10.280;2023-09-12T07:09:30;101053.22;;;19.68;100.00
62418;BME280;48456;54.242;10.280;2023-09-12T07:11:57;101051.44;;;19.69;100.00
62418;BME280;48456;54.242;10.280;2023-09-12T07:14:23;101046.97;;;19.68;100.00
62418;BME280;48456;54.242;10.280;2023-09-12T07:16:51;101052.16;;;19.72;100.00
62418;BME280;48456;54.242;10.280;2023-09-12T07:19:18;101048.47;;;19.75;100.00
62418;BME280;48456;54.242;10.280;2023-09-12T07:21:44;101041.38;;;19.74;100.00
62418;BME280;48456;54.242;10.280;2023-09-12T07:24:11;101055.59;;;19.76;100.00
62418;BME280;48456;54.242;10.280;2023-09-12T07:26:37;101053.84;;;19.75;100.00
62418;BME280;48456;54.242;10.280;2023-09-12T07:29:04;101056.47;;;19.77;100.00
62418;BME280;48456;54.242;10.280;2023-09-12T07:31:31;101047.63;;;19.74;100.00
62418;BME280;48456;54.242;10.280;2023-09-12T07:33:58;101053.84;;;19.75;100.00
62418;BME280;48456;54.242;10.280;2023-09-12T07:36:24;101052.75;;;19.81;100.00
62418;BME280;48456;54.242;10.280;2023-09-12T07:38:51;101053.47;;;19.84;100.00
62418;BME280;48456;54.242;10.280;2023-09-12T07:41:17;101050.31;;;19.97;100.00
62418;BME280;48456;54.242;10.280;2023-09-12T07:43:45;101045.50;;;20.07;100.00
62418;BME280;48456;54.242;10.280;2023-09-12T07:46:11;101050.53;;;20.15;100.00
62418;BME280;48456;54.242;10.280;2023-09-12T07:48:38;101048.34;;;20.24;100.00
62418;BME280;48456;54.242;10.280;2023-09-12T07:51:14;101046.16;;;20.34;100.00
62418;BME280;48456;54.242;10.280;2023-09-12T07:53:41;101046.25;;;20.54;100.00
62418;BME280;48456;54.242;10.280;2023-09-12T07:56:08;101038.16;;;20.76;100.00
62418;BME280;48456;54.242;10.280;2023-09-12T07:58:35;101039.34;;;20.91;100.00
62418;BME280;48456;54.242;10.280;2023-09-12T08:01:05;101035.88;;;21.08;100.00
62418;BME280;48456;54.242;10.280;2023-09-12T08:03:33;101035.69;;;21.13;100.00
62418;BME280;48456;54.242;10.280;2023-09-12T08:05:59;101043.44;;;21.19;100.00
62418;BME280;48456;54.242;10.280;2023-09-12T08:08:26;101042.59;;;21.19;100.00
62418;BME280;48456;54.242;10.280;2023-09-12T08:10:52;101038.97;;;21.20;100.00
62418;BME280;48456;54.242;10.280;2023-09-12T08:13:19;101041.44;;;21.24;100.00
62418;BME280;48456;54.242;10.280;2023-09-12T08:15:45;101044.22;;;21.23;100.00
62418;BME280;48456;54.242;10.280;2023-09-12T08:18:12;101046.16;;;21.19;100.00
62418;BME280;48456;54.242;10.280;2023-09-12T08:20:38;101044.34;;;21.20;100.00
62418;BME280;48456;54.242;10.280;2023-09-12T08:23:05;101041.59;;;21.21;100.00
62418;BME280;48456;54.242;10.280;2023-09-12T08:25:31;101043.56;;;21.18;100.00
62418;BME280;48456;54.242;10.280;2023-09-12T08:30:24;101039.34;;;21.31;100.00
62418;BME280;48456;54.242;10.280;2023-09-12T08:32:51;101037.69;;;21.48;100.00
62418;BME280;48456;54.242;10.280;2023-09-12T08:35:18;101036.59;;;21.73;100.00
62418;BME280;48456;54.242;10.280;2023-09-12T08:37:44;101045.84;;;22.04;100.00
62418;BME280;48456;54.242;10.280;2023-09-12T08:40:11;101037.09;;;22.18;100.00
62418;BME280;48456;54.242;10.280;2023-09-12T08:42:39;101042.72;;;22.31;100.00
62418;BME280;48456;54.242;10.280;2023-09-12T08:45:16;101055.72;;;22.23;100.00
62418;BME280;48456;54.242;10.280;2023-09-12T08:47:45;101063.00;;;22.20;100.00
62418;BME280;48456;54.242;10.280;2023-09-12T08:50:13;101057.38;;;22.25;100.00
62418;BME280;48456;54.242;10.280;2023-09-12T08:52:40;101061.94;;;22.42;100.00
62418;BME280;48456;54.242;10.280;2023-09-12T08:55:25;101069.66;;;22.68;100.00
62418;BME280;48456;54.242;10.280;2023-09-12T08:57:51;101080.16;;;22.37;100.00
62418;BME280;48456;54.242;10.280;2023-09-12T09:00:20;101081.06;;;22.18;100.00
62418;BME280;48456;54.242;10.280;2023-09-12T09:02:48;101087.72;;;22.11;100.00
62418;BME280;48456;54.242;10.280;2023-09-12T09:05:16;101078.72;;;22.30;100.00
62418;BME280;48456;54.242;10.280;2023-09-12T09:07:44;101076.59;;;22.54;100.00
62418;BME280;48456;54.242;10.280;2023-09-12T09:10:13;101073.25;;;22.68;100.00
62418;BME280;48456;54.242;10.280;2023-09-12T09:12:40;101076.97;;;22.66;100.00
62418;BME280;48456;54.242;10.280;2023-09-12T09:17:49;101080.78;;;22.62;100.00
62418;BME280;48456;54.242;10.280;2023-09-12T09:20:22;101081.56;;;22.64;100.00
62418;BME280;48456;54.242;10.280;2023-09-12T09:23:09;101081.22;;;22.52;100.00
62418;BME280;48456;54.242;10.280;2023-09-12T09:25:41;101083.41;;;22.63;100.00
62418;BME280;48456;54.242;10.280;2023-09-12T09:28:17;101082.44;;;22.64;100.00
62418;BME280;48456;54.242;10.280;2023-09-12T09:30:45;101082.78;;;22.58;100.00
62418;BME280;48456;54.242;10.280;2023-09-12T09:33:12;101087.53;;;22.51;100.00
62418;BME280;48456;54.242;10.280;2023-09-12T09:35:41;101084.84;;;22.51;100.00
62418;BME280;48456;54.242;10.280;2023-09-12T09:38:07;101084.44;;;22.61;100.00
62418;BME280;48456;54.242;10.280;2023-09-12T09:40:34;101085.91;;;22.66;100.00
62418;BME280;48456;54.242;10.280;2023-09-12T09:43:02;101085.06;;;22.66;100.00
62418;BME280;48456;54.242;10.280;2023-09-12T09:45:29;101085.75;;;22.87;100.00
62418;BME280;48456;54.242;10.280;2023-09-12T09:47:56;101082.59;;;22.79;100.00
62418;BME280;48456;54.242;10.280;2023-09-12T09:50:23;101089.91;;;22.77;100.00
62418;BME280;48456;54.242;10.280;2023-09-12T09:52:54;101088.53;;;22.85;100.00
62418;BME280;48456;54.242;10.280;2023-09-12T09:55:21;101090.59;;;22.98;100.00
62418;BME280;48456;54.242;10.280;2023-09-12T09:57:47;101083.78;;;23.08;100.00
62418;BME280;48456;54.242;10.280;2023-09-12T10:00:14;101091.47;;;22.98;100.00
62418;BME280;48456;54.242;10.280;2023-09-12T10:02:41;101087.34;;;22.91;100.00
62418;BME280;48456;54.242;10.280;2023-09-12T10:05:08;101088.31;;;22.90;100.00
62418;BME280;48456;54.242;10.280;2023-09-12T10:07:36;101083.72;;;22.92;100.00
62418;BME280;48456;54.242;10.280;2023-09-12T10:10:03;101085.94;;;23.02;100.00
62418;BME280;48456;54.242;10.280;2023-09-12T10:12:30;101082.47;;;23.33;100.00
62418;BME280;48456;54.242;10.280;2023-09-12T10:14:58;101075.41;;;23.31;100.00
62418;BME280;48456;54.242;10.280;2023-09-12T10:17:26;101086.78;;;23.38;100.00
62418;BME280;48456;54.242;10.280;2023-09-12T10:19:55;101088.41;;;23.58;100.00
62418;BME280;48456;54.242;10.280;2023-09-12T10:22:25;101084.41;;;23.81;100.00
62418;BME280;48456;54.242;10.280;2023-09-12T10:24:54;101093.88;;;23.72;100.00
62418;BME280;48456;54.242;10.280;2023-09-12T10:27:22;101103.41;;;23.80;100.00
62418;BME280;48456;54.242;10.280;2023-09-12T10:29:50;101103.56;;;23.77;100.00
62418;BME280;48456;54.242;10.280;2023-09-12T10:32:19;101101.13;;;24.04;100.00
62418;BME280;48456;54.242;10.280;2023-09-12T10:34:46;101105.66;;;23.87;100.00
62418;BME280;48456;54.242;10.280;2023-09-12T10:37:17;101097.84;;;23.83;100.00
62418;BME280;48456;54.242;10.280;2023-09-12T10:39:46;101087.56;;;23.90;100.00
62418;BME280;48456;54.242;10.280;2023-09-12T10:42:13;101093.59;;;24.11;100.00
62418;BME280;48456;54.242;10.280;2023-09-12T10:44:39;101096.00;;;24.32;100.00
62418;BME280;48456;54.242;10.280;2023-09-12T10:47:06;101099.44;;;24.35;100.00
62418;BME280;48456;54.242;10.280;2023-09-12T10:49:33;101094.97;;;24.50;100.00
62418;BME280;48456;54.242;10.280;2023-09-12T10:52:00;101098.09;;;24.59;100.00
62418;BME280;48456;54.242;10.280;2023-09-12T10:54:36;101086.63;;;24.70;100.00
62418;BME280;48456;54.242;10.280;2023-09-12T10:57:04;101094.81;;;24.68;100.00
62418;BME280;48456;54.242;10.280;2023-09-12T10:59:31;101090.50;;;24.49;100.00
62418;BME280;48456;54.242;10.280;2023-09-12T11:04:46;101086.81;;;24.66;100.00
62418;BME280;48456;54.242;10.280;2023-09-12T11:12:47;101074.88;;;24.55;100.00
62418;BME280;48456;54.242;10.280;2023-09-12T11:15:14;101075.94;;;24.52;100.00
62418;BME280;48456;54.242;10.280;2023-09-12T11:17:42;101081.38;;;24.66;100.00
62418;BME280;48456;54.242;10.280;2023-09-12T11:20:09;101078.31;;;25.03;100.00
62418;BME280;48456;54.242;10.280;2023-09-12T11:22:43;101074.38;;;25.53;100.00
62418;BME280;48456;54.242;10.280;2023-09-12T11:27:46;101079.41;;;26.71;100.00
62418;BME280;48456;54.242;10.280;2023-09-12T11:30:27;101074.19;;;27.21;100.00
62418;BME280;48456;54.242;10.280;2023-09-12T11:33:03;101063.75;;;27.28;100.00
62418;BME280;48456;54.242;10.280;2023-09-12T11:35:30;101058.84;;;27.46;100.00
62418;BME280;48456;54.242;10.280;2023-09-12T11:38:02;101065.03;;;27.22;100.00
62418;BME280;48456;54.242;10.280;2023-09-12T11:42:58;101068.31;;;27.15;100.00
62418;BME280;48456;54.242;10.280;2023-09-12T11:45:26;101070.41;;;26.70;100.00
62418;BME280;48456;54.242;10.280;2023-09-12T11:47:54;101073.41;;;26.53;100.00
62418;BME280;48456;54.242;10.280;2023-09-12T11:52:58;101080.72;;;25.95;100.00
62418;BME280;48456;54.242;10.280;2023-09-12T11:55:25;101077.38;;;25.77;100.00
62418;BME280;48456;54.242;10.280;2023-09-12T11:57:52;101077.09;;;25.38;100.00
62418;BME280;48456;54.242;10.280;2023-09-12T12:00:18;101073.38;;;25.10;100.00
62418;BME280;48456;54.242;10.280;2023-09-12T12:02:46;101080.38;;;24.84;100.00
62418;BME280;48456;54.242;10.280;2023-09-12T12:05:12;101072.28;;;24.53;100.00
62418;BME280;48456;54.242;10.280;2023-09-12T12:07:39;101071.69;;;24.48;100.00
62418;BME280;48456;54.242;10.280;2023-09-12T12:10:09;101071.53;;;24.35;100.00
62418;BME280;48456;54.242;10.280;2023-09-12T12:12:36;101072.81;;;24.27;100.00
62418;BME280;48456;54.242;10.280;2023-09-12T12:15:02;101082.38;;;24.19;100.00
62418;BME280;48456;54.242;10.280;2023-09-12T12:17:29;101068.72;;;24.04;100.00
62418;BME280;48456;54.242;10.280;2023-09-12T12:19:55;101066.72;;;23.92;100.00
62418;BME280;48456;54.242;10.280;2023-09-12T12:22:22;101071.34;;;23.90;100.00
62418;BME280;48456;54.242;10.280;2023-09-12T12:24:51;101063.16;;;23.91;100.00
62418;BME280;48456;54.242;10.280;2023-09-12T12:27:18;101070.31;;;23.92;100.00
62418;BME280;48456;54.242;10.280;2023-09-12T12:29:44;101066.84;;;23.90;100.00
62418;BME280;48456;54.242;10.280;2023-09-12T12:32:14;101064.28;;;23.87;100.00
62418;BME280;48456;54.242;10.280;2023-09-12T12:34:41;101062.44;;;23.87;100.00
62418;BME280;48456;54.242;10.280;2023-09-12T12:37:30;101070.66;;;23.86;100.00
62418;BME280;48456;54.242;10.280;2023-09-12T12:39:57;101061.41;;;23.74;100.00
62418;BME280;48456;54.242;10.280;2023-09-12T12:42:24;101063.13;;;23.59;100.00
62418;BME280;48456;54.242;10.280;2023-09-12T12:44:52;101056.69;;;23.61;100.00
62418;BME280;48456;54.242;10.280;2023-09-12T12:47:18;101052.25;;;23.60;100.00
62418;BME280;48456;54.242;10.280;2023-09-12T12:49:49;101054.88;;;23.62;100.00
62418;BME280;48456;54.242;10.280;2023-09-12T12:52:22;101058.25;;;23.66;100.00
62418;BME280;48456;54.242;10.280;2023-09-12T12:54:48;101045.41;;;23.71;100.00
62418;BME280;48456;54.242;10.280;2023-09-12T12:57:18;101046.75;;;23.62;100.00
62418;BME280;48456;54.242;10.280;2023-09-12T12:59:45;101043.25;;;23.60;100.00